Time;durP1;ratioP1;P1;durP2;ratioP2;P2;SDS_P1;SDS_P2;PMS_P1;PMS_P2;Temp;Humidity;BMP_temperature;BMP_pressure;BME280_temperature;BME280_humidity;BME280_pressure;Samples;Min_cycle;Max_cycle;Signal;HPM_P1;HPM_P2
2021/01/06 00:00:44;;;;;;;38.97;17.48;;;1.10;99.90;;;;;;5072861;28;20079;-77
2021/01/06 00:03:11;;;;;;;41.03;17.52;;;0.90;99.90;;;;;;5072273;28;20165;-77
2021/01/06 00:05:37;;;;;;;36.40;17.13;;;0.90;99.90;;;;;;5071524;28;20100;-78
2021/01/06 00:08:04;;;;;;;41.78;17.13;;;0.80;99.90;;;;;;5101809;28;20111;-77
2021/01/06 00:10:29;;;;;;;41.67;19.25;;;1.10;99.90;;;;;;5092265;28;20453;-77
2021/01/06 00:12:55;;;;;;;35.00;16.58;;;1.30;99.90;;;;;;5102124;28;20100;-77
2021/01/06 00:15:25;;;;;;;39.78;16.33;;;1.10;99.90;;;;;;5089138;28;20088;-77
2021/01/06 00:17:50;;;;;;;45.97;17.83;;;1.30;99.90;;;;;;5090260;28;20117;-77
2021/01/06 00:20:18;;;;;;;37.10;17.38;;;1.30;99.90;;;;;;5090086;28;20072;-76
2021/01/06 00:22:43;;;;;;;35.58;16.83;;;1.00;99.90;;;;;;5089965;28;20093;-77
2021/01/06 00:25:36;;;;;;;39.92;19.20;;;1.00;99.90;;;;;;5090001;28;20120;-77
2021/01/06 00:28:04;;;;;;;46.53;19.60;;;1.00;99.90;;;;;;5089522;28;20088;-77
2021/01/06 00:30:39;;;;;;;42.55;18.33;;;1.10;99.90;;;;;;5090008;28;20076;-77
2021/01/06 00:33:07;;;;;;;42.33;17.20;;;1.20;99.90;;;;;;5089582;28;20103;-77
2021/01/06 00:35:33;;;;;;;41.55;17.20;;;1.10;99.90;;;;;;5071139;28;20444;-78
2021/01/06 00:37:58;;;;;;;40.90;17.42;;;1.10;99.90;;;;;;5090390;28;20064;-77
2021/01/06 00:40:30;;;;;;;41.47;17.80;;;1.20;99.90;;;;;;5071980;28;20525;-78
2021/01/06 00:43:00;;;;;;;40.90;17.85;;;1.40;99.90;;;;;;5089967;28;20092;-77
2021/01/06 00:45:26;;;;;;;33.95;15.65;;;1.30;99.90;;;;;;5089641;28;20068;-77
2021/01/06 00:47:52;;;;;;;39.10;16.27;;;0.90;99.90;;;;;;5085301;28;20072;-77
2021/01/06 00:50:24;;;;;;;39.97;17.00;;;1.10;99.90;;;;;;5051602;28;20076;-77
2021/01/06 00:52:49;;;;;;;44.90;19.15;;;1.30;99.90;;;;;;5050881;28;20096;-77
2021/01/06 00:55:15;;;;;;;42.42;18.52;;;1.50;99.90;;;;;;5069289;28;20066;-77
2021/01/06 00:57:41;;;;;;;44.25;16.23;;;1.60;99.90;;;;;;5051615;28;20172;-77
2021/01/06 01:00:15;;;;;;;40.08;16.40;;;1.40;99.90;;;;;;5069545;28;20148;-77
2021/01/06 01:02:45;;;;;;;40.95;17.77;;;1.30;99.90;;;;;;5077157;28;20102;-77
2021/01/06 01:05:11;;;;;;;47.67;19.33;;;1.30;99.90;;;;;;5070624;28;20167;-77
2021/01/06 01:07:37;;;;;;;38.95;18.55;;;1.20;99.90;;;;;;5073769;28;20080;-77
2021/01/06 01:10:04;;;;;;;42.28;17.38;;;1.10;99.90;;;;;;5091405;28;20087;-77
2021/01/06 01:12:29;;;;;;;41.55;18.30;;;1.20;99.90;;;;;;5073322;28;20104;-77
2021/01/06 01:14:55;;;;;;;48.47;17.27;;;1.20;99.90;;;;;;5072678;28;20077;-77
2021/01/06 01:17:20;;;;;;;44.70;18.67;;;1.30;99.90;;;;;;5091635;28;20482;-77
2021/01/06 01:19:47;;;;;;;40.97;19.27;;;1.30;99.90;;;;;;5073950;28;20068;-77
2021/01/06 01:22:12;;;;;;;40.42;17.08;;;1.20;99.90;;;;;;5091509;28;20068;-77
2021/01/06 01:24:38;;;;;;;49.95;19.35;;;1.00;99.90;;;;;;5090946;28;20552;-77
2021/01/06 01:27:04;;;;;;;41.55;17.88;;;1.00;99.90;;;;;;5074370;28;20140;-76
2021/01/06 01:29:30;;;;;;;46.00;18.83;;;1.00;99.90;;;;;;5078211;28;20076;-76
2021/01/06 01:31:56;;;;;;;45.30;19.42;;;1.10;99.90;;;;;;5094267;28;20089;-76
2021/01/06 01:34:21;;;;;;;48.28;19.42;;;1.10;99.90;;;;;;5094707;28;20130;-77
2021/01/06 01:36:49;;;;;;;38.65;17.52;;;1.00;99.90;;;;;;5075388;28;20079;-76
2021/01/06 01:39:15;;;;;;;43.50;19.40;;;0.90;99.90;;;;;;5076667;28;20068;-76
2021/01/06 01:41:41;;;;;;;52.08;19.15;;;0.90;99.90;;;;;;5095052;28;20084;-76
2021/01/06 01:44:07;;;;;;;45.65;18.58;;;0.90;99.90;;;;;;5092325;28;20142;-76
2021/01/06 01:47:03;;;;;;;44.40;19.10;;;1.00;99.90;;;;;;5075903;28;20081;-77
2021/01/06 01:49:38;;;;;;;45.95;18.08;;;1.00;99.90;;;;;;5086101;28;20533;-77
2021/01/06 01:52:14;;;;;;;44.33;18.98;;;1.00;99.90;;;;;;5075184;28;20138;-77
2021/01/06 01:54:41;;;;;;;47.63;17.60;;;1.00;99.90;;;;;;5072049;22;20122;-73
2021/01/06 01:57:12;;;;;;;42.33;17.38;;;0.90;99.90;;;;;;5024839;28;20074;-74
2021/01/06 01:59:39;;;;;;;42.65;19.30;;;0.80;99.90;;;;;;5027388;28;20074;-74
2021/01/06 02:02:53;;;;;;;44.38;19.50;;;0.80;99.90;;;;;;5036956;28;20073;-73
2021/01/06 02:05:24;;;;;;;39.00;16.48;;;0.70;99.90;;;;;;5035350;28;20093;-73
2021/01/06 02:07:58;;;;;;;39.53;19.02;;;0.70;99.90;;;;;;5022083;28;20128;-73
2021/01/06 02:10:31;;;;;;;37.30;18.83;;;0.70;99.90;;;;;;5029190;28;20087;-73
2021/01/06 02:13:08;;;;;;;49.05;19.42;;;0.70;99.90;;;;;;5050541;28;20704;-73
2021/01/06 02:15:42;;;;;;;44.08;18.48;;;0.60;99.90;;;;;;5034012;28;20207;-73
2021/01/06 02:18:08;;;;;;;36.70;17.27;;;0.60;99.90;;;;;;5038583;28;20062;-73
2021/01/06 02:20:34;;;;;;;47.63;19.45;;;0.70;99.90;;;;;;5038963;28;20078;-73
2021/01/06 02:23:01;;;;;;;37.25;17.20;;;0.60;99.90;;;;;;5053995;28;20128;-73
2021/01/06 02:25:28;;;;;;;40.85;17.20;;;0.70;99.90;;;;;;5035440;28;20113;-73
2021/01/06 02:27:57;;;;;;;37.85;17.05;;;0.70;99.90;;;;;;5026120;28;20106;-73
2021/01/06 02:30:24;;;;;;;42.45;18.88;;;0.70;99.90;;;;;;5037255;28;20081;-73
2021/01/06 02:32:50;;;;;;;44.47;18.33;;;0.90;99.90;;;;;;5014342;28;20117;-73
2021/01/06 02:35:16;;;;;;;40.65;17.42;;;0.80;99.90;;;;;;5034683;28;20092;-72
2021/01/06 02:37:43;;;;;;;44.47;20.20;;;0.70;99.90;;;;;;5034188;28;20601;-73
2021/01/06 02:40:10;;;;;;;42.20;17.25;;;0.70;99.90;;;;;;5030213;28;20074;-73
2021/01/06 02:42:38;;;;;;;47.35;18.75;;;0.60;99.90;;;;;;5034486;28;20077;-73
2021/01/06 02:45:11;;;;;;;40.50;17.77;;;0.60;99.90;;;;;;5006812;28;20652;-72
2021/01/06 02:47:38;;;;;;;43.53;17.88;;;0.60;99.90;;;;;;5043118;28;20271;-73
2021/01/06 02:50:07;;;;;;;38.67;16.48;;;0.60;99.90;;;;;;5037186;28;20089;-73
2021/01/06 02:52:49;;;;;;;46.17;18.23;;;0.70;99.90;;;;;;5048853;28;20081;-73
2021/01/06 02:55:15;;;;;;;38.55;16.75;;;0.70;99.90;;;;;;5019950;28;20098;-73
2021/01/06 02:57:42;;;;;;;34.33;16.95;;;0.60;99.90;;;;;;5010101;28;20066;-73
2021/01/06 03:00:10;;;;;;;42.33;18.02;;;0.90;99.90;;;;;;5010343;28;20070;-72
2021/01/06 03:02:36;;;;;;;43.42;17.83;;;1.10;99.90;;;;;;5020482;28;20078;-73
2021/01/06 03:05:24;;;;;;;41.03;18.65;;;1.20;99.90;;;;;;5007200;28;20633;-73
2021/01/06 03:07:50;;;;;;;38.85;17.42;;;1.20;99.90;;;;;;5019135;28;20093;-73
2021/01/06 03:10:18;;;;;;;42.53;19.70;;;0.80;99.90;;;;;;5010493;28;20169;-72
2021/01/06 03:12:46;;;;;;;41.40;17.67;;;0.80;99.90;;;;;;4999352;28;20086;-72
2021/01/06 03:15:14;;;;;;;41.25;17.50;;;0.70;99.90;;;;;;5002378;28;20172;-73
2021/01/06 03:17:40;;;;;;;42.88;18.83;;;0.90;99.90;;;;;;5007979;28;20074;-72
2021/01/06 03:20:11;;;;;;;42.53;18.27;;;0.80;99.90;;;;;;5033397;28;20130;-73
2021/01/06 03:22:40;;;;;;;37.58;17.40;;;0.70;99.90;;;;;;4998442;28;20081;-72
2021/01/06 03:25:14;;;;;;;41.08;16.98;;;0.90;99.90;;;;;;5003584;28;20101;-73
2021/01/06 03:27:42;;;;;;;41.22;18.60;;;0.90;99.90;;;;;;4995281;28;20140;-73
2021/01/06 03:30:13;;;;;;;47.90;19.58;;;0.70;99.90;;;;;;5036071;28;20082;-73
2021/01/06 03:32:51;;;;;;;49.47;19.30;;;0.80;99.90;;;;;;5040993;28;20086;-73
2021/01/06 03:35:25;;;;;;;41.70;19.08;;;0.80;99.90;;;;;;5007326;28;20116;-73
2021/01/06 03:37:58;;;;;;;41.27;18.10;;;0.80;99.90;;;;;;5034058;28;20070;-73
2021/01/06 03:40:32;;;;;;;47.15;19.15;;;0.80;99.90;;;;;;5024654;28;20312;-73
2021/01/06 03:42:58;;;;;;;46.08;18.73;;;0.60;99.90;;;;;;5036205;28;20076;-73
2021/01/06 03:45:27;;;;;;;49.95;19.08;;;0.60;99.90;;;;;;5010069;28;20090;-72
2021/01/06 03:48:02;;;;;;;52.08;19.38;;;0.60;99.90;;;;;;5048927;28;20070;-73
2021/01/06 03:50:39;;;;;;;50.60;19.58;;;0.60;99.90;;;;;;5037328;28;20260;-73
2021/01/06 03:53:32;;;;;;;39.75;17.48;;;0.50;99.90;;;;;;5029600;28;20102;-73
2021/01/06 03:56:03;;;;;;;47.22;18.60;;;0.50;99.90;;;;;;5020080;28;20108;-73
2021/01/06 03:58:47;;;;;;;44.35;20.63;;;0.50;99.90;;;;;;5035202;28;20153;-73
2021/01/06 04:01:37;;;;;;;44.78;18.58;;;0.50;99.90;;;;;;5048099;28;20093;-72
2021/01/06 04:04:14;;;;;;;49.30;17.98;;;0.60;99.90;;;;;;5036463;28;20139;-73
2021/01/06 04:06:42;;;;;;;39.25;18.52;;;0.60;99.90;;;;;;5051577;28;20077;-73
2021/01/06 04:09:21;;;;;;;39.75;18.65;;;0.60;99.90;;;;;;5021355;28;20082;-73
2021/01/06 04:12:11;;;;;;;42.40;18.20;;;0.60;99.90;;;;;;5025881;28;20097;-73
2021/01/06 04:14:37;;;;;;;42.28;17.17;;;0.60;99.90;;;;;;5024492;28;20095;-73
2021/01/06 04:17:28;;;;;;;42.90;17.85;;;0.80;99.90;;;;;;5021384;28;20071;-73
2021/01/06 04:20:08;;;;;;;45.17;18.08;;;0.70;99.90;;;;;;5034866;28;20845;-73
2021/01/06 04:22:46;;;;;;;40.58;18.02;;;0.70;99.90;;;;;;5029015;28;20092;-73
2021/01/06 04:25:28;;;;;;;38.47;17.75;;;0.60;99.90;;;;;;5037501;28;20100;-73
2021/01/06 04:28:04;;;;;;;38.38;18.30;;;0.50;99.90;;;;;;5044144;28;20089;-73
2021/01/06 04:30:38;;;;;;;41.85;17.33;;;0.60;99.90;;;;;;5036862;28;20192;-73
2021/01/06 04:33:44;;;;;;;41.13;19.08;;;0.60;99.90;;;;;;5032531;28;20106;-73
2021/01/06 04:36:15;;;;;;;;;;;0.60;99.90;;;;;;5025946;28;20089;-73
2021/01/06 04:38:44;;;;;;;44.00;17.52;;;0.60;99.90;;;;;;5024229;28;19968;-73
2021/01/06 04:41:39;;;;;;;43.63;19.33;;;0.60;99.90;;;;;;5022168;28;20069;-74
2021/01/06 04:44:05;;;;;;;45.95;19.20;;;0.80;99.90;;;;;;5021335;28;20094;-74
2021/01/06 04:47:07;;;;;;;44.13;19.73;;;0.80;99.90;;;;;;5027859;28;20077;-73
2021/01/06 04:49:51;;;;;;;48.50;20.15;;;0.70;99.90;;;;;;5032266;28;20062;-73
2021/01/06 04:52:49;;;;;;;44.42;19.17;;;0.70;99.90;;;;;;5029058;28;20085;-73
2021/01/06 04:55:32;;;;;;;37.67;17.52;;;0.80;99.90;;;;;;4995642;28;20462;-74
2021/01/06 04:57:58;;;;;;;40.15;17.88;;;0.70;99.90;;;;;;5036753;28;20140;-74
2021/01/06 05:00:27;;;;;;;39.35;16.90;;;0.80;99.90;;;;;;5018050;28;20089;-74
2021/01/06 05:03:01;;;;;;;41.80;17.88;;;0.80;99.90;;;;;;5033158;28;20121;-74
2021/01/06 05:06:15;;;;;;;37.43;17.23;;;0.70;99.90;;;;;;5040001;28;20108;-74
2021/01/06 05:08:43;;;;;;;36.40;16.60;;;0.70;99.90;;;;;;4978905;28;20089;-74
2021/01/06 05:11:14;;;;;;;38.92;17.48;;;0.70;99.90;;;;;;4987310;28;20190;-74
2021/01/06 05:13:48;;;;;;;41.63;17.75;;;0.60;99.90;;;;;;5010789;28;20097;-74
2021/01/06 05:16:17;;;;;;;40.92;18.27;;;0.30;99.90;;;;;;5022637;28;20106;-74
2021/01/06 05:18:44;;;;;;;42.63;17.80;;;0.30;99.90;;;;;;5039304;28;20099;-74
2021/01/06 05:21:19;;;;;;;43.92;18.88;;;0.30;99.90;;;;;;5020242;28;20086;-74
2021/01/06 05:23:47;;;;;;;;;;;0.40;99.90;;;;;;5032611;28;20144;-74
2021/01/06 05:26:12;;;;;;;45.08;18.25;;;0.30;99.90;;;;;;5046720;28;20577;-74
2021/01/06 05:28:38;;;;;;;44.67;19.60;;;0.10;99.90;;;;;;5037669;28;20070;-74
2021/01/06 05:31:04;;;;;;;46.85;18.58;;;0.10;99.90;;;;;;5045347;28;20188;-74
2021/01/06 05:33:39;;;;;;;43.90;20.55;;;0.20;99.90;;;;;;5038769;28;20168;-74
2021/01/06 05:36:06;;;;;;;42.20;19.45;;;0.20;99.90;;;;;;5046840;28;20088;-74
2021/01/06 05:38:32;;;;;;;39.75;18.13;;;0.20;99.90;;;;;;5041857;28;20093;-74
2021/01/06 05:40:57;;;;;;;47.33;19.98;;;0.40;99.90;;;;;;5053867;28;20074;-74
2021/01/06 05:43:29;;;;;;;45.25;20.52;;;0.40;99.90;;;;;;5047168;28;20089;-74
2021/01/06 05:45:58;;;;;;;46.00;19.23;;;0.60;99.90;;;;;;5056093;28;20077;-74
2021/01/06 05:48:49;;;;;;;43.65;19.10;;;0.70;99.90;;;;;;5035865;28;20074;-75
2021/01/06 05:51:18;;;;;;;46.75;19.50;;;0.50;99.90;;;;;;5035866;28;20480;-74
2021/01/06 05:53:55;;;;;;;41.22;18.60;;;0.70;99.90;;;;;;5015762;28;20460;-75
2021/01/06 05:56:24;;;;;;;34.58;17.33;;;0.70;99.90;;;;;;5047639;28;20549;-75
2021/01/06 05:58:56;;;;;;;46.03;19.52;;;0.50;99.90;;;;;;5018471;28;20082;-75
2021/01/06 06:01:46;;;;;;;44.83;18.98;;;0.50;99.90;;;;;;5034052;28;20097;-74
2021/01/06 06:04:23;;;;;;;44.50;18.95;;;0.70;99.90;;;;;;5033572;28;20094;-74
2021/01/06 06:06:48;;;;;;;40.00;16.70;;;0.40;99.90;;;;;;5033187;28;20074;-74
2021/01/06 06:09:33;;;;;;;45.85;20.98;;;0.20;99.90;;;;;;5022930;28;20108;-75
2021/01/06 06:12:38;;;;;;;51.50;21.85;;;0.10;99.90;;;;;;5019023;28;20180;-75
2021/01/06 06:15:31;;;;;;;51.00;18.67;;;0.30;99.90;;;;;;5024684;28;20176;-75
2021/01/06 06:18:14;;;;;;;38.42;18.52;;;0.20;99.90;;;;;;5029438;28;20109;-75
2021/01/06 06:21:19;;;;;;;45.40;20.20;;;0.30;99.90;;;;;;5043902;28;20550;-74
2021/01/06 06:24:02;;;;;;;43.33;19.85;;;0.20;99.90;;;;;;5032201;28;20101;-74
2021/01/06 06:26:44;;;;;;;42.30;18.80;;;0.10;99.90;;;;;;5032369;28;20070;-74
2021/01/06 06:29:29;;;;;;;39.35;16.45;;;0.10;99.90;;;;;;5014748;28;20089;-74
2021/01/06 06:31:59;;;;;;;44.42;18.75;;;0.00;99.90;;;;;;5039645;28;20117;-75
2021/01/06 06:34:34;;;;;;;44.65;18.77;;;-0.10;99.90;;;;;;5014562;28;20181;-75
2021/01/06 06:37:16;;;;;;;46.28;20.77;;;-0.10;99.90;;;;;;5033145;28;20200;-74
2021/01/06 06:39:41;;;;;;;38.05;18.63;;;-0.10;99.90;;;;;;5022562;28;20082;-74
2021/01/06 06:42:44;;;;;;;39.53;18.38;;;-0.10;99.90;;;;;;5032775;28;20132;-75
2021/01/06 06:45:37;;;;;;;40.88;18.10;;;-0.10;99.90;;;;;;5033268;28;20101;-74
2021/01/06 06:48:21;;;;;;;43.85;19.48;;;0.00;99.90;;;;;;5047805;28;20077;-75
2021/01/06 06:51:11;;;;;;;41.38;18.35;;;-0.20;99.90;;;;;;5019483;28;20077;-75
2021/01/06 06:54:00;;;;;;;41.22;17.17;;;-0.30;99.90;;;;;;5035541;28;20101;-74
2021/01/06 06:56:39;;;;;;;41.13;18.90;;;-0.20;99.90;;;;;;5019650;28;20080;-74
2021/01/06 06:59:13;;;;;;;41.30;19.48;;;-0.40;99.90;;;;;;5038079;28;20078;-74
2021/01/06 07:01:44;;;;;;;40.13;18.13;;;-0.50;99.90;;;;;;5026530;28;20161;-75
2021/01/06 07:04:24;;;;;;;37.75;16.70;;;-0.30;99.90;;;;;;5041166;28;20158;-75
2021/01/06 07:06:53;;;;;;;41.90;18.10;;;-0.40;99.90;;;;;;5024832;28;20078;-75
2021/01/06 07:09:31;;;;;;;39.97;19.02;;;-0.40;99.90;;;;;;5031515;28;20066;-74
2021/01/06 07:12:09;;;;;;;38.25;18.92;;;-0.50;99.90;;;;;;5037697;28;20172;-74
2021/01/06 07:14:48;;;;;;;41.45;17.20;;;-0.50;99.90;;;;;;5025527;28;20104;-74
2021/01/06 07:17:27;;;;;;;41.88;17.23;;;-0.70;99.90;;;;;;5020527;28;20070;-75
2021/01/06 07:20:06;;;;;;;38.85;17.98;;;-0.60;99.90;;;;;;5045791;28;20065;-74
2021/01/06 07:22:35;;;;;;;46.22;19.83;;;-0.50;99.90;;;;;;5013753;28;20077;-74
2021/01/06 07:25:27;;;;;;;43.60;19.58;;;-0.40;99.90;;;;;;5036539;28;20171;-75
2021/01/06 07:28:01;;;;;;;40.42;18.27;;;-0.40;99.90;;;;;;5041057;28;20088;-75
2021/01/06 07:30:31;;;;;;;43.80;18.83;;;-0.30;99.90;;;;;;5049238;28;20076;-74
2021/01/06 07:32:59;;;;;;;39.17;17.60;;;-0.40;99.90;;;;;;5029645;28;20096;-74
2021/01/06 07:35:28;;;;;;;42.45;18.95;;;-0.40;99.90;;;;;;5040424;28;20089;-74
2021/01/06 07:38:07;;;;;;;41.38;16.88;;;-0.50;99.90;;;;;;5037079;28;20078;-73
2021/01/06 07:40:38;;;;;;;38.35;17.00;;;-0.40;99.90;;;;;;5038030;28;20077;-74
2021/01/06 07:43:07;;;;;;;37.95;17.50;;;-0.40;99.90;;;;;;5036872;28;20453;-75
2021/01/06 07:45:59;;;;;;;44.33;18.30;;;-0.40;99.90;;;;;;5041047;28;20457;-74
2021/01/06 07:48:43;;;;;;;42.00;18.45;;;-0.30;99.90;;;;;;5036609;28;20115;-75
2021/01/06 07:51:29;;;;;;;37.55;17.20;;;-0.40;99.90;;;;;;5048071;28;20595;-75
2021/01/06 07:54:05;;;;;;;37.00;18.73;;;-0.30;99.90;;;;;;5048183;28;20188;-75
2021/01/06 07:56:39;;;;;;;43.97;18.02;;;-0.20;99.90;;;;;;5024147;28;20140;-74
2021/01/06 07:59:18;;;;;;;40.70;18.45;;;-0.30;99.90;;;;;;5028174;28;20082;-75
2021/01/06 08:01:55;;;;;;;41.88;16.40;;;-0.30;99.90;;;;;;5046585;28;20073;-74
2021/01/06 08:04:24;;;;;;;38.92;18.98;;;-0.30;99.90;;;;;;5020602;28;20089;-75
2021/01/06 08:06:57;;;;;;;43.78;19.73;;;-0.30;99.90;;;;;;5025945;28;20174;-74
2021/01/06 08:09:38;;;;;;;44.33;17.92;;;-0.40;99.90;;;;;;5014685;28;20593;-75
2021/01/06 08:12:34;;;;;;;43.13;19.55;;;-0.20;99.90;;;;;;5036015;28;20113;-75
2021/01/06 08:15:15;;;;;;;40.45;17.73;;;-0.40;99.90;;;;;;5015858;28;20581;-75
2021/01/06 08:17:48;;;;;;;35.83;17.25;;;-0.20;99.90;;;;;;5022486;28;20097;-74
2021/01/06 08:20:30;;;;;;;41.88;15.98;;;-0.40;99.90;;;;;;5022897;28;20084;-74
2021/01/06 08:23:00;;;;;;;43.95;18.55;;;-0.30;99.90;;;;;;5010254;28;20607;-75
2021/01/06 08:25:33;;;;;;;40.10;16.92;;;-0.30;99.90;;;;;;5029220;28;20178;-75
2021/01/06 08:27:58;;;;;;;48.95;21.23;;;-0.40;99.90;;;;;;5033949;28;20074;-73
2021/01/06 08:30:29;;;;;;;43.95;19.55;;;-0.20;99.90;;;;;;5031161;28;20632;-73
2021/01/06 08:33:08;;;;;;;43.47;19.92;;;-0.20;99.90;;;;;;5032154;28;20094;-73
2021/01/06 08:35:38;;;;;;;43.05;19.48;;;-0.40;99.90;;;;;;5027239;28;20086;-73
2021/01/06 08:38:21;;;;;;;44.85;18.58;;;-0.50;99.90;;;;;;5028504;28;20080;-74
2021/01/06 08:40:47;;;;;;;41.85;20.15;;;-0.60;99.90;;;;;;5022944;28;20534;-75
2021/01/06 08:43:13;;;;;;;44.03;19.10;;;-0.60;99.90;;;;;;5030711;28;20217;-75
2021/01/06 08:45:42;;;;;;;40.08;18.08;;;-0.50;99.90;;;;;;5016469;28;20148;-74
2021/01/06 08:48:25;;;;;;;40.15;17.17;;;-0.50;99.90;;;;;;5029463;28;20203;-74
2021/01/06 08:50:52;;;;;;;44.60;18.90;;;-0.60;99.90;;;;;;5036047;28;20088;-75
2021/01/06 08:53:29;;;;;;;55.30;23.45;;;-0.40;99.90;;;;;;5024611;28;20102;-74
2021/01/06 08:55:58;;;;;;;46.85;19.63;;;-0.60;99.90;;;;;;5036943;28;20143;-74
2021/01/06 08:58:38;;;;;;;44.47;19.10;;;-0.60;99.90;;;;;;5029684;28;20154;-74
2021/01/06 09:01:03;;;;;;;45.78;18.85;;;-0.60;99.90;;;;;;5041625;28;20069;-72
2021/01/06 09:03:54;;;;;;;45.80;20.00;;;-0.60;99.90;;;;;;5032109;28;20085;-73
2021/01/06 09:06:26;;;;;;;42.25;18.73;;;-0.50;99.90;;;;;;5029013;28;20062;-74
2021/01/06 09:08:59;;;;;;;40.20;17.80;;;-0.50;99.90;;;;;;5043637;28;20466;-74
2021/01/06 09:11:27;;;;;;;43.58;20.92;;;-0.50;99.90;;;;;;5036675;28;20094;-73
2021/01/06 09:13:55;;;;;;;39.58;17.30;;;-0.50;99.90;;;;;;5036667;28;20128;-73
2021/01/06 09:16:30;;;;;;;44.80;17.42;;;-0.40;99.90;;;;;;5046201;28;20071;-73
2021/01/06 09:19:02;;;;;;;41.78;17.60;;;-0.30;99.90;;;;;;5039471;28;20109;-72
2021/01/06 09:21:31;;;;;;;34.65;16.92;;;-0.40;99.90;;;;;;5035993;28;20560;-78
2021/01/06 09:24:12;;;;;;;35.85;16.13;;;-0.30;99.90;;;;;;5027606;28;20128;-73
2021/01/06 09:26:40;;;;;;;40.55;17.67;;;-0.30;99.90;;;;;;5028918;28;20070;-74
2021/01/06 09:29:10;;;;;;;39.25;17.30;;;-0.20;99.90;;;;;;5031509;28;20590;-73
2021/01/06 09:31:51;;;;;;;43.05;18.88;;;0.00;99.90;;;;;;5026149;28;20097;-74
2021/01/06 09:34:20;;;;;;;33.22;16.27;;;0.00;99.90;;;;;;5022881;28;20557;-76
2021/01/06 09:36:50;;;;;;;40.88;19.50;;;0.10;99.90;;;;;;5034220;28;20161;-76
2021/01/06 09:39:21;;;;;;;42.60;18.48;;;0.00;99.90;;;;;;5033394;28;20184;-76
2021/01/06 09:41:48;;;;;;;37.17;18.38;;;0.00;99.90;;;;;;5035062;28;20081;-76
2021/01/06 09:44:14;;;;;;;37.28;16.73;;;-0.10;99.90;;;;;;5024281;28;20094;-78
2021/01/06 09:46:49;;;;;;;40.55;16.48;;;-0.20;99.90;;;;;;5031212;28;20521;-73
2021/01/06 09:49:21;;;;;;;41.00;17.00;;;-0.20;99.90;;;;;;5022276;28;20082;-73
2021/01/06 09:51:53;;;;;;;37.13;17.38;;;-0.10;99.90;;;;;;5031720;28;20093;-73
2021/01/06 09:54:20;;;;;;;42.45;17.60;;;-0.10;99.90;;;;;;5028030;28;20094;-73
2021/01/06 09:56:46;;;;;;;40.75;16.98;;;-0.20;99.90;;;;;;5021693;28;20618;-73
2021/01/06 09:59:23;;;;;;;38.42;16.50;;;-0.20;99.90;;;;;;5032075;28;20081;-73
2021/01/06 10:02:16;;;;;;;36.08;15.23;;;-0.20;99.90;;;;;;5048028;28;20081;-73
2021/01/06 10:04:44;;;;;;;38.40;18.17;;;0.00;99.90;;;;;;5028907;28;20105;-73
2021/01/06 10:07:47;;;;;;;36.80;17.30;;;0.00;99.90;;;;;;5031542;28;20124;-73
2021/01/06 10:10:22;;;;;;;31.67;14.85;;;0.10;99.90;;;;;;5029950;28;20091;-73
2021/01/06 10:13:04;;;;;;;34.58;18.45;;;0.20;99.90;;;;;;5026031;28;20101;-73
2021/01/06 10:16:08;;;;;;;34.13;15.65;;;0.20;99.90;;;;;;5055573;28;20566;-73
2021/01/06 10:19:15;;;;;;;35.22;15.77;;;0.10;99.90;;;;;;5045514;28;20576;-73
2021/01/06 10:22:02;;;;;;;39.85;18.67;;;0.20;99.90;;;;;;4954096;28;20105;-73
2021/01/06 10:24:52;;;;;;;38.55;16.35;;;0.10;99.90;;;;;;5032746;28;20106;-72
2021/01/06 10:27:29;;;;;;;35.13;17.58;;;0.10;99.90;;;;;;5025378;28;20108;-74
2021/01/06 10:29:56;;;;;;;35.95;15.70;;;0.30;99.90;;;;;;5032303;28;20131;-74
2021/01/06 10:32:46;;;;;;;29.52;14.07;;;0.30;99.90;;;;;;5037220;28;20093;-74
2021/01/06 10:35:36;;;;;;;30.90;15.15;;;0.20;99.90;;;;;;5034071;28;20088;-74
2021/01/06 10:38:22;;;;;;;31.75;14.70;;;0.20;99.90;;;;;;5033892;28;20156;-74
2021/01/06 10:40:50;;;;;;;32.35;14.60;;;0.10;99.90;;;;;;5036643;28;20074;-72
2021/01/06 10:43:28;;;;;;;26.73;14.02;;;0.20;99.90;;;;;;5031082;28;20681;-73
2021/01/06 10:45:53;;;;;;;30.15;13.32;;;0.40;99.90;;;;;;5036386;28;20074;-73
2021/01/06 10:48:43;;;;;;;29.08;13.60;;;0.30;99.90;;;;;;5040237;28;20076;-80
2021/01/06 10:51:09;;;;;;;30.80;14.00;;;0.20;99.90;;;;;;5025887;28;20071;-77
2021/01/06 10:53:40;;;;;;;23.17;12.85;;;0.30;99.90;;;;;;5026674;28;20070;-77
2021/01/06 10:56:15;;;;;;;25.05;12.02;;;0.40;99.90;;;;;;5028882;28;20090;-76
2021/01/06 10:58:56;;;;;;;28.55;13.48;;;0.30;99.90;;;;;;5035123;28;20149;-76
2021/01/06 11:01:26;;;;;;;28.40;13.70;;;0.20;99.90;;;;;;5035979;28;20065;-77
2021/01/06 11:04:03;;;;;;;25.88;12.90;;;0.30;99.90;;;;;;5031889;28;20093;-73
2021/01/06 11:06:41;;;;;;;25.75;12.70;;;0.30;99.90;;;;;;5031012;28;20070;-72
2021/01/06 11:09:18;;;;;;;28.90;13.10;;;0.20;99.90;;;;;;5019824;28;20534;-73
2021/01/06 11:12:05;;;;;;;30.20;13.90;;;0.00;99.90;;;;;;5033340;28;20177;-73
2021/01/06 11:14:47;;;;;;;32.20;15.05;;;0.00;99.90;;;;;;5036587;28;20118;-75
2021/01/06 11:17:19;;;;;;;29.83;12.93;;;0.00;99.90;;;;;;5019383;28;20078;-74
2021/01/06 11:19:57;;;;;;;29.00;12.60;;;0.10;99.90;;;;;;5024625;28;20522;-74
2021/01/06 11:22:38;;;;;;;28.67;13.65;;;0.10;99.90;;;;;;5032057;28;20085;-74
2021/01/06 11:25:22;;;;;;;38.70;12.38;;;0.10;99.90;;;;;;5036294;28;20093;-76
2021/01/06 11:28:25;;;;;;;26.77;12.45;;;0.30;99.90;;;;;;5030384;28;20070;-80
2021/01/06 11:31:21;;;;;;;34.83;15.15;;;0.30;99.90;;;;;;5015103;28;20089;-74
2021/01/06 11:33:52;;;;;;;27.60;13.55;;;0.30;99.90;;;;;;5039165;28;20120;-77
2021/01/06 11:36:46;;;;;;;30.58;14.30;;;0.50;99.90;;;;;;5033448;28;20074;-79
2021/01/06 11:39:38;;;;;;;27.67;13.93;;;0.30;99.90;;;;;;5037556;28;20124;-78
2021/01/06 11:42:04;;;;;;;30.77;14.65;;;0.30;99.90;;;;;;5029492;28;20128;-73
2021/01/06 11:44:35;;;;;;;25.70;13.23;;;0.40;99.90;;;;;;5026344;28;20090;-73
2021/01/06 11:47:25;;;;;;;28.33;14.35;;;0.40;99.90;;;;;;5025595;28;20078;-73
2021/01/06 11:49:59;;;;;;;28.92;13.77;;;0.50;99.90;;;;;;5028377;28;20569;-74
2021/01/06 11:52:33;;;;;;;32.13;13.77;;;0.40;99.90;;;;;;5034512;28;20100;-74
2021/01/06 11:55:26;;;;;;;29.08;14.20;;;0.40;99.90;;;;;;5035808;28;20357;-77
2021/01/06 11:58:23;;;;;;;28.50;12.93;;;0.60;99.90;;;;;;5026441;28;20136;-74
2021/01/06 12:01:17;;;;;;;27.88;13.60;;;0.50;99.90;;;;;;5016622;28;20110;-73
2021/01/06 12:04:01;;;;;;;27.05;13.18;;;0.60;99.90;;;;;;5039268;28;20090;-72
2021/01/06 12:06:34;;;;;;;31.13;13.65;;;0.50;99.90;;;;;;5024389;28;20074;-73
2021/01/06 12:09:24;;;;;;;29.30;13.68;;;0.60;99.90;;;;;;5025885;28;20807;-74
2021/01/06 12:12:16;;;;;;;34.58;14.57;;;0.60;99.90;;;;;;5017673;28;20097;-73
2021/01/06 12:15:20;;;;;;;29.83;15.32;;;0.60;99.90;;;;;;5027092;28;20097;-74
2021/01/06 12:17:53;;;;;;;33.40;15.02;;;0.80;99.90;;;;;;5024256;28;20069;-73
2021/01/06 12:20:27;;;;;;;32.08;15.55;;;0.80;99.90;;;;;;5052150;28;20095;-75
2021/01/06 12:23:14;;;;;;;27.70;13.48;;;0.80;99.90;;;;;;5029946;28;20541;-74
2021/01/06 12:25:44;;;;;;;29.75;14.30;;;0.70;99.90;;;;;;5032883;28;20158;-73
2021/01/06 12:28:41;;;;;;;28.10;13.07;;;0.70;99.90;;;;;;5030045;28;20090;-73
2021/01/06 12:31:17;;;;;;;30.23;13.57;;;0.60;99.90;;;;;;5023541;28;20132;-75
2021/01/06 12:34:05;;;;;;;32.05;14.93;;;0.60;99.90;;;;;;5030286;28;20142;-74
2021/01/06 12:36:55;;;;;;;30.13;15.20;;;0.70;99.90;;;;;;5025305;28;20075;-73
2021/01/06 12:39:28;;;;;;;27.63;14.40;;;0.70;99.90;;;;;;5026335;28;20223;-74
2021/01/06 12:42:30;;;;;;;27.67;13.20;;;0.80;99.90;;;;;;5035852;28;20199;-74
2021/01/06 12:45:05;;;;;;;28.92;13.52;;;0.70;99.90;;;;;;5027200;28;20105;-75
2021/01/06 12:47:39;;;;;;;27.60;13.15;;;0.70;99.90;;;;;;5030572;28;20576;-74
2021/01/06 12:50:37;;;;;;;30.10;12.75;;;0.80;99.90;;;;;;5025785;28;20084;-74
2021/01/06 12:53:23;;;;;;;26.83;12.55;;;0.70;99.90;;;;;;5009158;28;20148;-73
2021/01/06 12:55:52;;;;;;;29.13;13.52;;;0.80;99.90;;;;;;5023395;28;20093;-73
2021/01/06 12:58:27;;;;;;;29.88;14.85;;;0.70;99.90;;;;;;5027994;28;20121;-74
2021/01/06 13:01:22;;;;;;;26.15;13.23;;;0.70;99.90;;;;;;5022524;28;20084;-74
2021/01/06 13:04:08;;;;;;;28.10;14.15;;;0.70;99.90;;;;;;5025434;28;20098;-74
2021/01/06 13:06:41;;;;;;;27.17;13.68;;;0.80;99.90;;;;;;5025246;28;20174;-74
2021/01/06 13:09:12;;;;;;;30.35;15.55;;;0.70;99.90;;;;;;5026323;28;20116;-74
2021/01/06 13:11:38;;;;;;;27.08;13.82;;;0.70;99.90;;;;;;5025008;28;20093;-74
2021/01/06 13:14:34;;;;;;;25.75;12.88;;;0.80;99.90;;;;;;5029321;28;20094;-73
2021/01/06 13:17:18;;;;;;;23.55;11.57;;;0.90;99.90;;;;;;5028071;28;20066;-73
2021/01/06 13:19:59;;;;;;;24.58;11.05;;;0.80;99.90;;;;;;5025663;28;20220;-73